Time;durP1;ratioP1;P1;durP2;ratioP2;P2;SDS_P1;SDS_P2;PMS_P1;PMS_P2;Temp;Humidity;BMP_temperature;BMP_pressure;BME280_temperature;BME280_humidity;BME280_pressure;Samples;Min_cycle;Max_cycle;Signal;HPM_P1;HPM_P2
2023/03/04 00:02:25;;;;;;;10.93;7.53;;;;;;;;;;5083953;28;20219;-80
2023/03/04 00:04:51;;;;;;;12.40;9.30;;;;;;;;;;5071325;28;20680;-79
2023/03/04 00:07:18;;;;;;;14.73;12.47;;;;;;;;;;5072257;28;20243;-79
2023/03/04 00:09:46;;;;;;;17.10;13.27;;;;;;;;;;5083550;28;20696;-80
2023/03/04 00:12:13;;;;;;;12.43;9.07;;;;;;;;;;5072576;28;20229;-80
2023/03/04 00:14:41;;;;;;;8.33;7.13;;;;;;;;;;5091455;28;20204;-79
2023/03/04 00:17:08;;;;;;;11.47;8.37;;;;;;;;;;5091648;28;20595;-79
2023/03/04 00:19:34;;;;;;;8.80;7.53;;;;;;;;;;5091327;28;20196;-80
2023/03/04 00:22:01;;;;;;;9.10;7.50;;;;;;;;;;5075184;28;20201;-80
2023/03/04 00:24:28;;;;;;;10.83;6.97;;;;;;;;;;5071314;28;20211;-80
2023/03/04 00:26:55;;;;;;;9.23;6.50;;;;;;;;;;5070843;28;20691;-80
2023/03/04 00:29:22;;;;;;;9.87;7.00;;;;;;;;;;5081329;28;20222;-80
2023/03/04 00:31:50;;;;;;;9.80;7.67;;;;;;;;;;5091076;28;20239;-80
2023/03/04 00:34:17;;;;;;;8.90;7.03;;;;;;;;;;5091143;28;20258;-80
2023/03/04 00:36:44;;;;;;;9.47;7.23;;;;;;;;;;5087474;28;20212;-80
2023/03/04 00:39:11;;;;;;;7.77;6.30;;;;;;;;;;5070946;28;20745;-80
2023/03/04 00:41:38;;;;;;;8.77;7.23;;;;;;;;;;5071463;28;20204;-80
2023/03/04 00:44:05;;;;;;;8.53;6.47;;;;;;;;;;5082063;28;20211;-80
2023/03/04 00:46:32;;;;;;;7.77;6.93;;;;;;;;;;5073140;28;20201;-80
2023/03/04 00:49:00;;;;;;;8.50;7.20;;;;;;;;;;5082556;28;20208;-79
2023/03/04 00:51:27;;;;;;;9.50;7.33;;;;;;;;;;5085567;28;20235;-80
2023/03/04 00:53:53;;;;;;;8.37;6.67;;;;;;;;;;5070711;28;20628;-80
2023/03/04 00:56:20;;;;;;;9.93;7.63;;;;;;;;;;5065859;28;20213;-81
2023/03/04 00:58:47;;;;;;;7.93;7.13;;;;;;;;;;5074719;28;20204;-80
2023/03/04 01:01:14;;;;;;;10.70;7.50;;;;;;;;;;5072357;28;20204;-80
2023/03/04 01:03:41;;;;;;;11.37;7.93;;;;;;;;;;5071031;28;20205;-79
2023/03/04 01:06:10;;;;;;;9.50;7.70;;;;;;;;;;5070890;28;21353;-80
2023/03/04 01:08:37;;;;;;;11.03;8.47;;;;;;;;;;5071078;28;20683;-80
2023/03/04 01:11:03;;;;;;;12.80;9.17;;;;;;;;;;5090576;28;20235;-80
2023/03/04 01:13:31;;;;;;;10.97;8.07;;;;;;;;;;5079156;28;20209;-80
2023/03/04 01:15:57;;;;;;;10.23;8.30;;;;;;;;;;5093880;28;20215;-80
2023/03/04 01:18:24;;;;;;;13.53;9.30;;;;;;;;;;5094616;28;20646;-80
2023/03/04 01:20:51;;;;;;;10.77;8.40;;;;;;;;;;5081591;28;20203;-80
2023/03/04 01:23:20;;;;;;;10.50;9.23;;;;;;;;;;5081442;28;20205;-80
2023/03/04 01:25:46;;;;;;;12.07;8.93;;;;;;;;;;5074387;28;20644;-80
2023/03/04 01:28:13;;;;;;;13.67;9.83;;;;;;;;;;5074429;28;20205;-81
2023/03/04 01:30:40;;;;;;;16.30;10.40;;;;;;;;;;5081066;28;20238;-79
2023/03/04 01:33:07;;;;;;;17.93;10.77;;;;;;;;;;5081097;28;20212;-80
2023/03/04 01:35:33;;;;;;;13.23;9.60;;;;;;;;;;5054428;28;20276;-80
2023/03/04 01:38:00;;;;;;;15.73;9.77;;;;;;;;;;5081553;28;20204;-80
2023/03/04 01:40:28;;;;;;;15.77;10.57;;;;;;;;;;5081351;28;20707;-80
2023/03/04 01:42:55;;;;;;;12.60;10.10;;;;;;;;;;5094412;28;20208;-80
2023/03/04 01:45:22;;;;;;;13.63;9.87;;;;;;;;;;5086370;28;20204;-80
2023/03/04 01:47:51;;;;;;;11.37;9.33;;;;;;;;;;5074042;28;20205;-80
2023/03/04 01:50:21;;;;;;;11.40;9.40;;;;;;;;;;5082310;28;20205;-80
2023/03/04 01:52:48;;;;;;;13.10;9.90;;;;;;;;;;5078189;28;20233;-80
2023/03/04 01:55:16;;;;;;;13.23;9.37;;;;;;;;;;5074175;28;20197;-80
2023/03/04 01:57:45;;;;;;;12.70;8.97;;;;;;;;;;5073919;28;20220;-80
2023/03/04 02:00:22;;;;;;;11.20;8.33;;;;;;;;;;5073777;28;20262;-83
2023/03/04 02:02:52;;;;;;;9.60;8.30;;;;;;;;;;5078459;28;20215;-80
2023/03/04 02:05:19;;;;;;;10.30;8.57;;;;;;;;;;5081563;28;20205;-80
2023/03/04 02:07:46;;;;;;;13.40;9.10;;;;;;;;;;5073490;28;20290;-80
2023/03/04 02:10:13;;;;;;;10.43;7.97;;;;;;;;;;5086028;28;20238;-80
2023/03/04 02:12:40;;;;;;;11.47;9.30;;;;;;;;;;5074557;28;20658;-80
2023/03/04 02:15:09;;;;;;;12.60;9.20;;;;;;;;;;5085900;28;20208;-80
2023/03/04 02:17:36;;;;;;;10.67;9.37;;;;;;;;;;5087519;28;20697;-80
2023/03/04 02:20:10;;;;;;;13.03;9.43;;;;;;;;;;5073532;28;20655;-80
2023/03/04 02:22:40;;;;;;;14.60;11.13;;;;;;;;;;5067743;28;20211;-80
2023/03/04 02:25:11;;;;;;;13.30;9.53;;;;;;;;;;5078477;28;20217;-79
2023/03/04 02:27:40;;;;;;;13.67;11.00;;;;;;;;;;5081474;28;20207;-80
2023/03/04 02:30:08;;;;;;;14.97;10.30;;;;;;;;;;5091312;28;20756;-80
2023/03/04 02:32:34;;;;;;;13.00;10.33;;;;;;;;;;5073054;28;20258;-79
2023/03/04 02:35:01;;;;;;;12.30;9.17;;;;;;;;;;5073263;28;20262;-79
2023/03/04 02:37:28;;;;;;;11.53;9.10;;;;;;;;;;5082336;28;20257;-80
2023/03/04 02:39:55;;;;;;;14.50;10.43;;;;;;;;;;5090887;28;20261;-80
2023/03/04 02:42:21;;;;;;;13.73;10.90;;;;;;;;;;5081832;28;20679;-80
2023/03/04 02:44:49;;;;;;;12.77;9.10;;;;;;;;;;5090550;28;20215;-80
2023/03/04 02:47:18;;;;;;;12.07;8.67;;;;;;;;;;5082471;28;20593;-80
2023/03/04 02:49:45;;;;;;;11.03;9.30;;;;;;;;;;5090235;28;20205;-80
2023/03/04 02:52:14;;;;;;;13.50;9.07;;;;;;;;;;5082638;28;20231;-80
2023/03/04 02:54:41;;;;;;;12.37;9.43;;;;;;;;;;5075719;28;20596;-80
2023/03/04 02:57:10;;;;;;;13.13;9.57;;;;;;;;;;5083550;28;20208;-80
2023/03/04 02:59:38;;;;;;;15.50;10.57;;;;;;;;;;5079390;28;20215;-80
2023/03/04 03:02:06;;;;;;;11.50;9.03;;;;;;;;;;5081763;28;20631;-80
2023/03/04 03:04:33;;;;;;;9.83;8.23;;;;;;;;;;5072644;28;20212;-80
2023/03/04 03:07:00;;;;;;;10.47;8.23;;;;;;;;;;5084192;28;20235;-80
2023/03/04 03:09:27;;;;;;;10.50;8.87;;;;;;;;;;5087553;28;20205;-80
2023/03/04 03:11:54;;;;;;;11.87;8.10;;;;;;;;;;5084741;28;20227;-80
2023/03/04 03:14:20;;;;;;;11.40;8.53;;;;;;;;;;5078847;28;20196;-80
2023/03/04 03:16:47;;;;;;;11.97;8.93;;;;;;;;;;5080137;28;20563;-80
2023/03/04 03:19:15;;;;;;;10.60;9.07;;;;;;;;;;5072062;28;20205;-80
2023/03/04 03:21:42;;;;;;;12.57;9.30;;;;;;;;;;5072502;28;20762;-80
2023/03/04 03:24:09;;;;;;;11.37;8.67;;;;;;;;;;5092134;28;20212;-80
2023/03/04 03:26:36;;;;;;;12.57;9.77;;;;;;;;;;5079025;28;20208;-80
2023/03/04 03:29:02;;;;;;;11.80;8.63;;;;;;;;;;5085098;28;20671;-79
2023/03/04 03:31:29;;;;;;;12.50;9.63;;;;;;;;;;5085958;28;20212;-80
2023/03/04 03:33:56;;;;;;;12.93;8.83;;;;;;;;;;5092262;28;20239;-80
2023/03/04 03:36:24;;;;;;;13.27;9.50;;;;;;;;;;5091138;28;20204;-80
2023/03/04 03:38:51;;;;;;;14.83;10.40;;;;;;;;;;5071877;28;20696;-79
2023/03/04 03:41:17;;;;;;;11.20;8.87;;;;;;;;;;5073494;28;20204;-80
2023/03/04 03:43:44;;;;;;;13.10;8.13;;;;;;;;;;5092023;28;20209;-81
2023/03/04 03:46:11;;;;;;;11.33;8.20;;;;;;;;;;5076554;28;20201;-81
2023/03/04 03:48:38;;;;;;;11.63;8.40;;;;;;;;;;5071961;28;20242;-80
2023/03/04 03:51:05;;;;;;;13.80;9.03;;;;;;;;;;5071691;28;20228;-80
2023/03/04 03:53:33;;;;;;;11.67;8.33;;;;;;;;;;5071722;28;20654;-80
2023/03/04 03:56:00;;;;;;;9.50;7.70;;;;;;;;;;5073836;28;20595;-80
2023/03/04 03:58:26;;;;;;;10.50;8.07;;;;;;;;;;5082701;28;20208;-80
2023/03/04 04:00:53;;;;;;;14.30;10.07;;;;;;;;;;5073808;28;20292;-80
2023/03/04 04:03:20;;;;;;;11.80;8.33;;;;;;;;;;5082099;28;20234;-80
2023/03/04 04:05:47;;;;;;;13.37;8.40;;;;;;;;;;5070865;28;20209;-81
2023/03/04 04:08:14;;;;;;;14.30;9.73;;;;;;;;;;5071363;28;20205;-80
2023/03/04 04:10:43;;;;;;;9.97;7.80;;;;;;;;;;5085067;28;20722;-80
2023/03/04 04:13:09;;;;;;;9.87;7.30;;;;;;;;;;5080780;28;20228;-80
2023/03/04 04:15:37;;;;;;;9.87;7.30;;;;;;;;;;5078154;28;20196;-80
2023/03/04 04:18:04;;;;;;;10.83;7.57;;;;;;;;;;5091509;28;20797;-80
2023/03/04 04:20:31;;;;;;;14.03;9.63;;;;;;;;;;5091296;28;20313;-80
2023/03/04 04:22:58;;;;;;;18.97;10.90;;;;;;;;;;5091680;28;20601;-80
2023/03/04 04:25:25;;;;;;;12.87;10.90;;;;;;;;;;5077538;28;20595;-80
2023/03/04 04:27:53;;;;;;;12.13;9.77;;;;;;;;;;5080960;28;20201;-80
2023/03/04 04:30:20;;;;;;;15.33;10.53;;;;;;;;;;5084930;28;20208;-80
2023/03/04 04:32:46;;;;;;;15.70;10.20;;;;;;;;;;5082579;28;20660;-80
2023/03/04 04:35:13;;;;;;;14.37;11.20;;;;;;;;;;5073195;28;20193;-80
2023/03/04 04:37:40;;;;;;;19.17;13.57;;;;;;;;;;5071078;28;20201;-80
2023/03/04 04:40:08;;;;;;;21.10;16.60;;;;;;;;;;5084331;28;20258;-80
2023/03/04 04:42:35;;;;;;;13.53;10.47;;;;;;;;;;5071192;28;20193;-80
2023/03/04 04:45:04;;;;;;;14.10;10.10;;;;;;;;;;5070761;28;20220;-80
2023/03/04 04:47:31;;;;;;;14.03;10.30;;;;;;;;;;5083753;28;20215;-80
2023/03/04 04:49:58;;;;;;;14.67;11.20;;;;;;;;;;5074729;28;20266;-80
2023/03/04 04:52:25;;;;;;;11.57;10.37;;;;;;;;;;5087943;28;20702;-80
2023/03/04 04:54:51;;;;;;;11.87;10.10;;;;;;;;;;5075231;28;20196;-80
2023/03/04 04:57:18;;;;;;;14.83;10.20;;;;;;;;;;5074965;28;20205;-80
2023/03/04 04:59:45;;;;;;;15.10;9.70;;;;;;;;;;5062043;28;20213;-80
2023/03/04 05:02:13;;;;;;;17.90;12.03;;;;;;;;;;5074758;28;20761;-80
2023/03/04 05:04:40;;;;;;;17.93;13.23;;;;;;;;;;5069367;28;20231;-80
2023/03/04 05:07:06;;;;;;;16.27;10.87;;;;;;;;;;5081511;28;20228;-80
2023/03/04 05:09:33;;;;;;;13.77;10.00;;;;;;;;;;5087451;28;20201;-80
2023/03/04 05:12:00;;;;;;;10.83;8.63;;;;;;;;;;5088617;28;20200;-81
2023/03/04 05:14:27;;;;;;;12.90;8.97;;;;;;;;;;5075079;28;20205;-80
2023/03/04 05:16:53;;;;;;;16.13;10.00;;;;;;;;;;5074650;28;20745;-80
2023/03/04 05:19:22;;;;;;;12.47;9.17;;;;;;;;;;5087308;28;20676;-80
2023/03/04 05:21:48;;;;;;;12.30;8.20;;;;;;;;;;5075282;28;20213;-86
2023/03/04 05:24:15;;;;;;;11.03;8.70;;;;;;;;;;5095061;28;20209;-80
2023/03/04 05:26:42;;;;;;;15.90;11.50;;;;;;;;;;5079795;28;20236;-80
2023/03/04 05:29:09;;;;;;;23.03;17.63;;;;;;;;;;5074384;28;20250;-80
2023/03/04 05:31:35;;;;;;;20.27;17.47;;;;;;;;;;5074316;28;20201;-80
2023/03/04 05:34:02;;;;;;;21.97;17.97;;;;;;;;;;5081987;28;20227;-80
2023/03/04 05:36:30;;;;;;;116.00;61.73;;;;;;;;;;5079664;28;20687;-80
2023/03/04 05:38:57;;;;;;;31.93;21.77;;;;;;;;;;5074308;28;20200;-80
2023/03/04 05:41:24;;;;;;;21.30;14.67;;;;;;;;;;5074214;28;20209;-80
2023/03/04 05:43:51;;;;;;;20.97;14.00;;;;;;;;;;5083122;28;20610;-80
2023/03/04 05:46:24;;;;;;;20.03;14.63;;;;;;;;;;5092474;28;20200;-80
2023/03/04 05:48:51;;;;;;;19.27;14.53;;;;;;;;;;5073803;28;20684;-81
2023/03/04 05:51:18;;;;;;;19.40;13.10;;;;;;;;;;5087412;28;20215;-81
2023/03/04 05:53:46;;;;;;;15.87;12.60;;;;;;;;;;5084379;28;20224;-80
2023/03/04 05:56:15;;;;;;;17.87;12.13;;;;;;;;;;5076556;28;20200;-80
2023/03/04 05:58:42;;;;;;;14.73;11.50;;;;;;;;;;5084989;28;20215;-80
2023/03/04 06:01:09;;;;;;;21.43;18.33;;;;;;;;;;5093536;28;20212;-80
2023/03/04 06:03:36;;;;;;;13.57;12.03;;;;;;;;;;5093851;28;20216;-80
2023/03/04 06:06:03;;;;;;;13.93;10.73;;;;;;;;;;5089356;28;21836;-80
2023/03/04 06:08:30;;;;;;;11.63;10.30;;;;;;;;;;5085209;28;20206;-80
2023/03/04 06:10:59;;;;;;;14.90;11.30;;;;;;;;;;5079742;28;20208;-80
2023/03/04 06:13:26;;;;;;;13.47;10.30;;;;;;;;;;5081708;28;20240;-80
2023/03/04 06:15:57;;;;;;;15.23;11.43;;;;;;;;;;5078409;28;20265;-81
2023/03/04 06:18:28;;;;;;;15.07;10.67;;;;;;;;;;5093801;28;20238;-81
2023/03/04 06:20:57;;;;;;;16.97;11.33;;;;;;;;;;5067075;28;20563;-81
2023/03/04 06:23:24;;;;;;;14.40;10.50;;;;;;;;;;5074816;28;20738;-81
2023/03/04 06:25:52;;;;;;;20.40;13.17;;;;;;;;;;5082014;28;20283;-79
2023/03/04 06:28:20;;;;;;;20.37;14.40;;;;;;;;;;5086682;28;20209;-80
2023/03/04 06:30:47;;;;;;;16.37;12.23;;;;;;;;;;5073698;28;20217;-80
2023/03/04 06:33:14;;;;;;;16.37;11.60;;;;;;;;;;5073716;28;20224;-80
2023/03/04 06:35:40;;;;;;;15.93;11.83;;;;;;;;;;5072291;28;20220;-76
2023/03/04 06:38:07;;;;;;;19.50;13.10;;;;;;;;;;5079057;28;20633;-79
2023/03/04 06:40:34;;;;;;;33.87;18.67;;;;;;;;;;5079501;28;20205;-80
2023/03/04 06:43:00;;;;;;;33.17;21.17;;;;;;;;;;5073039;28;20266;-80
2023/03/04 06:45:29;;;;;;;17.73;13.57;;;;;;;;;;5086790;28;20208;-79
2023/03/04 06:47:55;;;;;;;16.03;12.03;;;;;;;;;;5093223;28;20215;-79
2023/03/04 06:50:22;;;;;;;17.30;12.83;;;;;;;;;;5078798;28;20684;-83
2023/03/04 06:52:49;;;;;;;16.50;11.33;;;;;;;;;;5093081;28;20289;-82
2023/03/04 06:55:16;;;;;;;19.67;13.70;;;;;;;;;;5078917;28;20680;-83
2023/03/04 06:57:43;;;;;;;20.10;14.13;;;;;;;;;;5085855;28;20534;-82
2023/03/04 07:00:11;;;;;;;16.97;13.30;;;;;;;;;;5072631;28;20651;-83
2023/03/04 07:02:39;;;;;;;16.47;13.70;;;;;;;;;;5072838;28;20209;-83
2023/03/04 07:05:06;;;;;;;24.27;20.10;;;;;;;;;;5087510;28;20579;-83
2023/03/04 07:07:33;;;;;;;18.63;15.10;;;;;;;;;;5084522;28;20245;-82
2023/03/04 07:10:00;;;;;;;16.00;12.83;;;;;;;;;;5085858;28;20204;-85
2023/03/04 07:12:27;;;;;;;18.63;13.97;;;;;;;;;;5072395;28;20254;-83
2023/03/04 07:14:53;;;;;;;17.40;15.50;;;;;;;;;;5091694;28;20278;-85
2023/03/04 07:17:20;;;;;;;22.03;15.07;;;;;;;;;;5081504;28;20205;-83
2023/03/04 07:19:49;;;;;;;21.50;14.33;;;;;;;;;;5086144;28;20694;-83
2023/03/04 07:22:19;;;;;;;21.93;14.60;;;;;;;;;;5071958;28;20577;-84
2023/03/04 07:24:45;;;;;;;19.53;13.70;;;;;;;;;;5078368;28;20204;-82
2023/03/04 07:27:12;;;;;;;16.67;14.87;;;;;;;;;;5079448;28;20218;-83
2023/03/04 07:29:39;;;;;;;20.47;14.50;;;;;;;;;;5078377;28;20203;-83
2023/03/04 07:32:07;;;;;;;15.30;13.27;;;;;;;;;;5092659;28;20208;-83
2023/03/04 07:34:34;;;;;;;16.40;11.90;;;;;;;;;;5065338;28;20293;-83
2023/03/04 07:37:03;;;;;;;18.40;12.33;;;;;;;;;;5086320;28;20293;-83
2023/03/04 07:39:30;;;;;;;15.30;12.57;;;;;;;;;;5092086;28;20216;-82
2023/03/04 07:41:56;;;;;;;16.47;12.20;;;;;;;;;;5078644;28;20201;-82
2023/03/04 07:44:23;;;;;;;17.00;13.07;;;;;;;;;;5092325;28;20262;-84
2023/03/04 07:46:50;;;;;;;14.67;12.33;;;;;;;;;;5090749;28;20200;-83
2023/03/04 07:49:18;;;;;;;14.87;10.90;;;;;;;;;;5071509;28;20215;-83
2023/03/04 07:51:45;;;;;;;12.77;9.47;;;;;;;;;;5085323;28;20212;-82
2023/03/04 07:54:13;;;;;;;10.43;9.00;;;;;;;;;;5071490;28;20251;-83
2023/03/04 07:56:40;;;;;;;22.20;11.83;;;;;;;;;;5082504;28;20208;-77
2023/03/04 07:59:07;;;;;;;17.87;12.03;;;;;;;;;;5084938;28;20212;-79
2023/03/04 08:01:35;;;;;;;13.80;10.60;;;;;;;;;;5078552;28;20675;-81
2023/03/04 08:04:02;;;;;;;13.60;9.17;;;;;;;;;;5090807;28;20204;-80
2023/03/04 08:06:30;;;;;;;11.60;8.53;;;;;;;;;;5079469;28;20236;-80
2023/03/04 08:08:58;;;;;;;11.73;8.77;;;;;;;;;;5090360;28;20211;-81
2023/03/04 08:11:27;;;;;;;9.67;7.77;;;;;;;;;;5082983;28;20197;-80
2023/03/04 08:13:54;;;;;;;11.40;6.73;;;;;;;;;;5083867;28;20239;-83
2023/03/04 08:16:23;;;;;;;11.23;8.53;;;;;;;;;;5079972;28;20586;-81
2023/03/04 08:18:53;;;;;;;9.20;8.17;;;;;;;;;;5090887;28;21642;-80
2023/03/04 08:21:21;;;;;;;11.57;8.10;;;;;;;;;;5080753;28;20705;-80
2023/03/04 08:23:49;;;;;;;8.63;6.43;;;;;;;;;;5070103;28;20204;-81
2023/03/04 08:26:19;;;;;;;7.23;6.37;;;;;;;;;;5080916;28;20197;-81
2023/03/04 08:28:47;;;;;;;6.90;5.60;;;;;;;;;;5086873;28;20204;-80
2023/03/04 08:31:15;;;;;;;7.40;6.37;;;;;;;;;;5070459;28;20205;-82
2023/03/04 08:33:42;;;;;;;7.67;5.83;;;;;;;;;;5070619;28;20220;-80
2023/03/04 08:36:10;;;;;;;10.97;7.77;;;;;;;;;;5070988;28;20205;-80
2023/03/04 08:38:37;;;;;;;9.80;6.77;;;;;;;;;;5083963;28;20593;-81
2023/03/04 08:41:03;;;;;;;7.10;5.87;;;;;;;;;;5082011;28;20208;-82
2023/03/04 08:43:31;;;;;;;12.27;6.33;;;;;;;;;;5071941;28;20216;-81
2023/03/04 08:45:59;;;;;;;7.50;6.33;;;;;;;;;;5070613;28;20596;-81
2023/03/04 08:48:26;;;;;;;11.37;6.63;;;;;;;;;;5071117;28;20639;-82
2023/03/04 08:50:53;;;;;;;7.43;6.33;;;;;;;;;;5070921;28;20639;-81
2023/03/04 08:53:20;;;;;;;12.63;7.07;;;;;;;;;;5083791;28;20252;-81
2023/03/04 08:55:48;;;;;;;8.47;6.03;;;;;;;;;;5070797;28;20212;-81
2023/03/04 08:58:15;;;;;;;10.50;7.97;;;;;;;;;;5083838;28;20694;-82
2023/03/04 09:00:43;;;;;;;7.47;6.73;;;;;;;;;;5084392;28;20250;-82
2023/03/04 09:03:12;;;;;;;11.00;6.60;;;;;;;;;;5070856;28;20215;-82
2023/03/04 09:05:39;;;;;;;9.33;6.53;;;;;;;;;;5071205;28;20288;-82
2023/03/04 09:08:06;;;;;;;6.23;5.57;;;;;;;;;;5090993;28;20228;-81
2023/03/04 09:10:33;;;;;;;7.37;6.40;;;;;;;;;;5077020;28;20702;-82
2023/03/04 09:13:00;;;;;;;8.77;5.73;;;;;;;;;;5090761;28;20220;-82
2023/03/04 09:15:27;;;;;;;14.20;10.17;;;;;;;;;;5088686;28;20604;-83
2023/03/04 09:17:54;;;;;;;16.03;10.77;;;;;;;;;;5070961;28;20259;-81
2023/03/04 09:20:23;;;;;;;13.27;10.80;;;;;;;;;;5084050;28;20200;-81
2023/03/04 09:22:50;;;;;;;14.10;10.83;;;;;;;;;;5080341;28;20674;-81
2023/03/04 09:25:16;;;;;;;19.97;14.70;;;;;;;;;;5074048;28;20193;-82
2023/03/04 09:27:44;;;;;;;11.93;9.80;;;;;;;;;;5070956;28;20205;-82
2023/03/04 09:30:12;;;;;;;11.03;8.27;;;;;;;;;;5070234;28;20201;-80
2023/03/04 09:32:38;;;;;;;7.00;6.30;;;;;;;;;;5070051;28;20687;-82
2023/03/04 09:35:06;;;;;;;42.97;27.47;;;;;;;;;;5072362;28;20256;-81
2023/03/04 09:37:34;;;;;;;14.93;10.57;;;;;;;;;;5074029;28;20686;-81
2023/03/04 09:40:01;;;;;;;9.37;7.03;;;;;;;;;;5073814;28;20193;-82
2023/03/04 09:42:33;;;;;;;11.43;7.50;;;;;;;;;;5074224;28;20194;-86
2023/03/04 09:45:01;;;;;;;13.20;9.93;;;;;;;;;;5087603;28;20205;-82
2023/03/04 09:47:29;;;;;;;9.07;7.00;;;;;;;;;;5086673;28;20204;-81
2023/03/04 09:49:58;;;;;;;13.67;8.57;;;;;;;;;;5074097;28;20197;-82
2023/03/04 09:52:33;;;;;;;5.30;4.80;;;;;;;;;;5074142;28;20205;-82
2023/03/04 09:55:05;;;;;;;7.03;5.93;;;;;;;;;;5073817;28;20232;-83
2023/03/04 09:57:44;;;;;;;7.87;6.17;;;;;;;;;;5087116;28;20678;-81
2023/03/04 10:00:18;;;;;;;9.00;7.30;;;;;;;;;;5073825;28;20759;-80
2023/03/04 10:02:51;;;;;;;8.07;5.93;;;;;;;;;;5087242;28;20241;-81
2023/03/04 10:05:21;;;;;;;14.53;10.70;;;;;;;;;;5073472;28;20197;-82
2023/03/04 10:07:54;;;;;;;9.40;8.33;;;;;;;;;;5060476;28;20620;-80
2023/03/04 10:10:27;;;;;;;8.07;7.20;;;;;;;;;;5086816;28;20211;-82
2023/03/04 10:12:55;;;;;;;8.53;7.63;;;;;;;;;;5081031;28;20675;-81
2023/03/04 10:15:24;;;;;;;12.50;11.07;;;;;;;;;;5080028;28;20229;-81
2023/03/04 10:17:55;;;;;;;12.43;7.00;;;;;;;;;;5085476;28;20201;-81
2023/03/04 10:20:24;;;;;;;8.03;6.80;;;;;;;;;;5075627;28;20727;-81
2023/03/04 10:22:52;;;;;;;13.30;10.53;;;;;;;;;;5084508;28;20286;-81
2023/03/04 10:25:23;;;;;;;9.23;7.20;;;;;;;;;;5076009;28;20213;-81
2023/03/04 10:27:52;;;;;;;9.60;8.10;;;;;;;;;;5093507;28;20208;-81
2023/03/04 10:30:23;;;;;;;15.57;10.43;;;;;;;;;;5075971;28;20204;-81
2023/03/04 10:32:50;;;;;;;12.10;8.73;;;;;;;;;;5073137;28;20209;-81
2023/03/04 10:35:27;;;;;;;12.13;9.67;;;;;;;;;;5086351;28;20287;-81
2023/03/04 10:37:56;;;;;;;10.73;7.97;;;;;;;;;;5072853;28;20201;-81
2023/03/04 10:40:25;;;;;;;10.50;7.67;;;;;;;;;;5086312;28;20665;-81
2023/03/04 10:42:56;;;;;;;10.20;8.20;;;;;;;;;;5072788;28;20266;-81
2023/03/04 10:45:24;;;;;;;15.47;12.07;;;;;;;;;;5073041;28;20274;-81
2023/03/04 10:47:57;;;;;;;10.67;8.90;;;;;;;;;;5085179;28;20204;-81
2023/03/04 10:50:28;;;;;;;21.40;13.97;;;;;;;;;;5072839;28;20196;-81
2023/03/04 10:52:57;;;;;;;20.13;13.93;;;;;;;;;;5071974;28;20637;-82
2023/03/04 10:55:28;;;;;;;30.70;19.40;;;;;;;;;;5082217;28;20231;-81
2023/03/04 10:57:56;;;;;;;26.93;17.33;;;;;;;;;;5092836;28;20196;-81
2023/03/04 11:00:31;;;;;;;13.87;11.67;;;;;;;;;;5092595;28;20200;-81
2023/03/04 11:03:23;;;;;;;15.03;13.40;;;;;;;;;;5087499;28;20240;-81
2023/03/04 11:05:52;;;;;;;11.27;9.40;;;;;;;;;;5087833;28;20208;-81
2023/03/04 11:08:21;;;;;;;32.20;21.00;;;;;;;;;;5083568;28;20251;-81
2023/03/04 11:10:51;;;;;;;27.70;15.60;;;;;;;;;;5085356;28;20633;-81
2023/03/04 11:13:20;;;;;;;9.37;7.57;;;;;;;;;;5083377;28;20208;-80
2023/03/04 11:15:51;;;;;;;8.53;6.40;;;;;;;;;;5078620;28;20227;-81
2023/03/04 11:18:26;;;;;;;9.27;7.37;;;;;;;;;;5091844;28;20218;-81
2023/03/04 11:20:54;;;;;;;8.57;6.70;;;;;;;;;;5090679;28;20227;-81
2023/03/04 11:23:26;;;;;;;10.30;8.67;;;;;;;;;;5077663;28;20201;-81
2023/03/04 11:25:59;;;;;;;7.97;7.17;;;;;;;;;;5077894;28;20204;-81
2023/03/04 11:28:29;;;;;;;7.63;6.53;;;;;;;;;;5090806;28;20602;-81
2023/03/04 11:30:58;;;;;;;8.20;6.37;;;;;;;;;;5081977;28;20207;-81
2023/03/04 11:33:28;;;;;;;10.73;9.63;;;;;;;;;;5070890;28;20216;-79
2023/03/04 11:36:02;;;;;;;7.80;6.73;;;;;;;;;;5071998;28;20298;-81
2023/03/04 11:38:32;;;;;;;7.00;6.30;;;;;;;;;;5072073;28;20235;-81
2023/03/04 11:41:04;;;;;;;7.33;5.23;;;;;;;;;;5071997;28;20209;-81
2023/03/04 11:43:37;;;;;;;8.67;6.13;;;;;;;;;;5071784;28;20254;-81
2023/03/04 11:46:34;;;;;;;7.70;5.17;;;;;;;;;;5085308;28;20203;-81
2023/03/04 11:49:11;;;;;;;6.23;5.20;;;;;;;;;;5091772;28;20218;-81
2023/03/04 11:51:44;;;;;;;12.00;6.73;;;;;;;;;;5072214;28;20258;-81
2023/03/04 11:54:20;;;;;;;10.03;6.47;;;;;;;;;;5084934;28;20204;-81
2023/03/04 11:56:50;;;;;;;9.03;5.93;;;;;;;;;;5079360;28;20208;-81
2023/03/04 11:59:28;;;;;;;6.70;6.10;;;;;;;;;;5089313;28;20201;-81
2023/03/04 12:02:03;;;;;;;8.87;5.83;;;;;;;;;;5081391;28;20276;-81
2023/03/04 12:04:41;;;;;;;10.73;8.37;;;;;;;;;;5091265;28;20595;-81
2023/03/04 12:07:22;;;;;;;8.37;6.73;;;;;;;;;;5090565;28;20259;-81
2023/03/04 12:09:57;;;;;;;15.20;10.70;;;;;;;;;;5091619;28;20204;-81
2023/03/04 12:12:41;;;;;;;11.83;8.13;;;;;;;;;;5074522;28;20217;-80
2023/03/04 12:15:14;;;;;;;7.00;5.93;;;;;;;;;;5071294;28;20232;-81
2023/03/04 12:17:51;;;;;;;11.13;8.20;;;;;;;;;;5077996;28;20215;-81
2023/03/04 12:20:29;;;;;;;7.27;5.63;;;;;;;;;;5076169;28;20233;-81
2023/03/04 12:23:02;;;;;;;6.47;5.50;;;;;;;;;;5081406;28;20264;-81
2023/03/04 12:25:41;;;;;;;7.77;5.80;;;;;;;;;;5073438;28;20204;-81
2023/03/04 12:28:21;;;;;;;8.60;6.70;;;;;;;;;;5083752;28;20200;-81
2023/03/04 12:30:59;;;;;;;9.17;7.60;;;;;;;;;;5058550;28;20201;-80
2023/03/04 12:33:33;;;;;;;6.87;5.77;;;;;;;;;;5073179;28;20700;-81
2023/03/04 12:36:05;;;;;;;9.60;7.90;;;;;;;;;;5080490;28;20711;-81
2023/03/04 12:38:51;;;;;;;13.27;11.73;;;;;;;;;;5071052;28;20197;-82
2023/03/04 12:41:27;;;;;;;7.73;6.53;;;;;;;;;;5071035;28;20193;-82
2023/03/04 12:44:01;;;;;;;12.47;9.27;;;;;;;;;;5080029;28;20705;-82
2023/03/04 12:46:35;;;;;;;14.47;9.10;;;;;;;;;;5077543;28;20206;-82
2023/03/04 12:49:19;;;;;;;9.03;7.00;;;;;;;;;;5079657;28;20579;-81
2023/03/04 12:51:49;;;;;;;15.40;10.47;;;;;;;;;;5061693;28;20671;-80
2023/03/04 12:54:24;;;;;;;16.37;9.90;;;;;;;;;;5084382;28;20678;-79
2023/03/04 12:56:54;;;;;;;22.63;14.27;;;;;;;;;;5070770;28;20213;-79
2023/03/04 12:59:25;;;;;;;11.87;9.57;;;;;;;;;;5074838;28;20211;-79
2023/03/04 13:01:59;;;;;;;41.87;25.73;;;;;;;;;;5091148;28;20204;-79
2023/03/04 13:04:30;;;;;;;15.00;8.80;;;;;;;;;;5074408;28;20219;-79
2023/03/04 13:07:10;;;;;;;10.27;6.70;;;;;;;;;;5081977;28;20575;-79
2023/03/04 13:09:43;;;;;;;9.57;8.60;;;;;;;;;;5085097;28;20665;-79
2023/03/04 13:12:15;;;;;;;9.80;7.87;;;;;;;;;;5074729;28;20200;-79
2023/03/04 13:15:19;;;;;;;8.17;6.37;;;;;;;;;;5074691;28;20216;-79
2023/03/04 13:17:52;;;;;;;9.50;8.50;;;;;;;;;;5069954;28;20214;-79
2023/03/04 13:20:23;;;;;;;11.07;7.07;;;;;;;;;;5094642;28;20687;-80
2023/03/04 13:22:56;;;;;;;17.27;13.97;;;;;;;;;;5094742;28;20625;-79
2023/03/04 13:25:46;;;;;;;11.57;8.27;;;;;;;;;;5093963;28;20201;-79
2023/03/04 13:28:17;;;;;;;6.77;5.43;;;;;;;;;;5080943;28;20215;-79
2023/03/04 13:31:25;;;;;;;9.87;7.93;;;;;;;;;;5068469;28;20230;-79
2023/03/04 13:34:03;;;;;;;13.50;10.40;;;;;;;;;;5080606;28;20216;-79
2023/03/04 13:36:33;;;;;;;20.43;15.33;;;;;;;;;;5093726;28;20266;-79
2023/03/04 13:39:02;;;;;;;10.47;8.60;;;;;;;;;;5094917;28;20722;-78
2023/03/04 13:41:34;;;;;;;9.50;8.10;;;;;;;;;;5091758;28;20215;-79
2023/03/04 13:44:03;;;;;;;17.97;14.30;;;;;;;;;;5083465;28;20632;-79
2023/03/04 13:46:40;;;;;;;191.77;75.63;;;;;;;;;;5077606;28;20593;-78
2023/03/04 13:49:15;;;;;;;168.70;81.80;;;;;;;;;;5086098;28;20214;-78
2023/03/04 13:51:43;;;;;;;129.83;66.17;;;;;;;;;;5074543;28;20204;-82
2023/03/04 13:54:14;;;;;;;56.63;34.00;;;;;;;;;;5073827;28;20668;-79
2023/03/04 13:56:42;;;;;;;50.33;31.37;;;;;;;;;;5060773;28;20225;-78
2023/03/04 13:59:22;;;;;;;82.03;46.63;;;;;;;;;;5087514;28;20200;-78
2023/03/04 14:01:56;;;;;;;45.07;28.63;;;;;;;;;;5094165;28;20264;-78
2023/03/04 14:04:25;;;;;;;28.67;18.73;;;;;;;;;;5076279;28;20743;-78
2023/03/04 14:06:54;;;;;;;39.37;25.13;;;;;;;;;;5083870;28;20328;-78
2023/03/04 14:09:23;;;;;;;33.40;22.57;;;;;;;;;;5076141;28;20250;-79
2023/03/04 14:11:50;;;;;;;20.10;15.10;;;;;;;;;;5085879;28;20205;-78
2023/03/04 14:14:21;;;;;;;15.40;12.27;;;;;;;;;;5079827;28;20196;-79
2023/03/04 14:16:50;;;;;;;69.90;46.83;;;;;;;;;;5093354;28;20228;-78
2023/03/04 14:19:21;;;;;;;31.10;23.00;;;;;;;;;;5093301;28;20205;-79
2023/03/04 14:21:51;;;;;;;47.03;31.47;;;;;;;;;;5091698;28;20215;-78
2023/03/04 14:24:20;;;;;;;34.73;24.77;;;;;;;;;;5067414;28;20207;-79
2023/03/04 14:26:48;;;;;;;20.33;17.30;;;;;;;;;;5092473;28;20721;-78
2023/03/04 14:29:23;;;;;;;21.47;16.07;;;;;;;;;;5080379;28;20630;-79
2023/03/04 14:31:50;;;;;;;18.23;15.33;;;;;;;;;;5077223;28;20209;-79
2023/03/04 14:34:24;;;;;;;23.07;16.90;;;;;;;;;;5073536;28;20204;-78
2023/03/04 14:36:50;;;;;;;24.60;18.63;;;;;;;;;;5086312;28;20235;-78
2023/03/04 14:39:21;;;;;;;39.60;29.50;;;;;;;;;;5083454;28;20204;-78
2023/03/04 14:41:49;;;;;;;22.37;17.93;;;;;;;;;;5088567;28;20201;-78